This is the latest recevied weather packets stored in our database for station/object K0SDS. If no packets are shown the sender has not sent any weather packets the latest 10 day(s).
| Time | Temp. | Humidity | Pressure | Rain* | Wind** | Luminosity | Snow |
|---|---|---|---|---|---|---|---|
| 1778181751 | 19.44° C | 47% | 1012.3 hPa | 0 mm | - | 642 W/m² | - |
| 1778181447 | 20° C | 48% | 1012.2 hPa | 0 mm | - | 652 W/m² | - |
| 1778181144 | 19.44° C | 50% | 1012.5 hPa | 0 mm | - | 698 W/m² | - |
| 1778180841 | 19.44° C | 46% | 1012.7 hPa | 0 mm | - | 661 W/m² | - |
| 1778180540 | 19.44° C | 50% | 1012.5 hPa | 0 mm | - | 729 W/m² | - |
| 1778180237 | 19.44° C | 48% | 1012.7 hPa | 0 mm | - | 700 W/m² | - |
| 1778179928 | 19.44° C | 50% | 1012.7 hPa | 0 mm | - | 701 W/m² | - |
| 1778179626 | 19.44° C | 49% | 1012.9 hPa | 0 mm | - | 734 W/m² | - |
| 1778179323 | 18.89° C | 53% | 1012.9 hPa | 0 mm | - | 797 W/m² | - |
| 1778179014 | 18.89° C | 49% | 1012.8 hPa | 0 mm | - | 654 W/m² | - |
| 1778178711 | 18.89° C | 52% | 1012.8 hPa | 0 mm | - | 650 W/m² | - |
| 1778178409 | 18.89° C | 49% | 1012.9 hPa | 0 mm | - | 189 W/m² | - |
| 1778178104 | 18.89° C | 49% | 1013.1 hPa | 0 mm | - | 686 W/m² | - |
| 1778177801 | 18.33° C | 50% | 1013.4 hPa | 0 mm | - | 694 W/m² | - |
| 1778177497 | 18.33° C | 53% | 1013.4 hPa | 0 mm | - | 665 W/m² | - |
| 1778177193 | 18.89° C | 50% | 1013.5 hPa | 0 mm | - | 696 W/m² | - |
| 1778176891 | 17.78° C | 55% | 1013.3 hPa | 0 mm | - | 776 W/m² | - |
| 1778176586 | 17.78° C | 53% | 1013.6 hPa | 0 mm | - | 889 W/m² | - |
| 1778176284 | 18.33° C | 51% | 1013.6 hPa | 0 mm | - | 213 W/m² | - |
| 1778175981 | 18.33° C | 53% | 1013.7 hPa | 0 mm | - | 758 W/m² | - |
| 1778175679 | 17.78° C | 55% | 1013.9 hPa | 0 mm | - | 778 W/m² | - |
| 1778175376 | 17.78° C | 52% | 1013.9 hPa | 0 mm | - | 281 W/m² | - |
| 1778175073 | 17.78° C | 53% | 1014.3 hPa | 0 mm | - | 802 W/m² | - |
| 1778174768 | 17.78° C | 53% | 1014.1 hPa | 0 mm | - | 709 W/m² | - |
| 1778174466 | 17.78° C | 54% | 1014.4 hPa | 0 mm | - | 747 W/m² | - |
* Rain latest hour (hover to see other rain measurements)
** Current wind speed in m/s (hover to see current wind gust speed)